sensor_id;sensor_type;location;lat;lon;timestamp;P1;durP1;ratioP1;P2;durP2;ratioP2
41943;SDS011;27636;52.610;13.244;2023-09-07T00:01:58;9.75;;;5.55;;
41943;SDS011;27636;52.610;13.244;2023-09-07T00:07:03;13.73;;;6.00;;
41943;SDS011;27636;52.610;13.244;2023-09-07T00:17:10;10.35;;;5.28;;
41943;SDS011;27636;52.610;13.244;2023-09-07T00:22:15;10.02;;;5.35;;
41943;SDS011;27636;52.610;13.244;2023-09-07T00:27:19;11.10;;;5.72;;
41943;SDS011;27636;52.610;13.244;2023-09-07T00:32:22;12.75;;;5.72;;
41943;SDS011;27636;52.610;13.244;2023-09-07T00:37:27;11.88;;;5.63;;
41943;SDS011;27636;52.610;13.244;2023-09-07T00:42:31;13.35;;;5.95;;
41943;SDS011;27636;52.610;13.244;2023-09-07T00:47:34;13.93;;;6.68;;
41943;SDS011;27636;52.610;13.244;2023-09-07T00:52:42;10.07;;;5.63;;
41943;SDS011;27636;52.610;13.244;2023-09-07T00:57:47;13.48;;;5.72;;
41943;SDS011;27636;52.610;13.244;2023-09-07T01:02:50;12.68;;;5.53;;
41943;SDS011;27636;52.610;13.244;2023-09-07T01:07:57;12.10;;;5.70;;
41943;SDS011;27636;52.610;13.244;2023-09-07T01:13:07;12.45;;;5.38;;
41943;SDS011;27636;52.610;13.244;2023-09-07T01:18:10;12.38;;;6.50;;
41943;SDS011;27636;52.610;13.244;2023-09-07T01:23:37;13.98;;;6.20;;
41943;SDS011;27636;52.610;13.244;2023-09-07T01:28:43;11.35;;;5.65;;
41943;SDS011;27636;52.610;13.244;2023-09-07T01:33:46;12.95;;;6.50;;
41943;SDS011;27636;52.610;13.244;2023-09-07T01:38:51;10.60;;;6.10;;
41943;SDS011;27636;52.610;13.244;2023-09-07T01:43:55;10.93;;;5.47;;
41943;SDS011;27636;52.610;13.244;2023-09-07T01:48:59;16.08;;;6.35;;
41943;SDS011;27636;52.610;13.244;2023-09-07T01:54:05;13.77;;;5.97;;
41943;SDS011;27636;52.610;13.244;2023-09-07T01:59:09;11.23;;;5.65;;
41943;SDS011;27636;52.610;13.244;2023-09-07T02:04:13;13.05;;;6.97;;
41943;SDS011;27636;52.610;13.244;2023-09-07T02:09:18;14.07;;;5.60;;
41943;SDS011;27636;52.610;13.244;2023-09-07T02:19:26;13.57;;;5.70;;
41943;SDS011;27636;52.610;13.244;2023-09-07T02:24:30;11.18;;;5.65;;
41943;SDS011;27636;52.610;13.244;2023-09-07T02:34:38;10.57;;;5.95;;
41943;SDS011;27636;52.610;13.244;2023-09-07T02:39:43;8.80;;;5.05;;
41943;SDS011;27636;52.610;13.244;2023-09-07T02:44:47;12.07;;;6.03;;
41943;SDS011;27636;52.610;13.244;2023-09-07T02:49:51;11.82;;;6.03;;
41943;SDS011;27636;52.610;13.244;2023-09-07T02:54:56;13.82;;;5.68;;
41943;SDS011;27636;52.610;13.244;2023-09-07T03:00:00;14.90;;;6.68;;
41943;SDS011;27636;52.610;13.244;2023-09-07T03:05:12;14.45;;;6.03;;
41943;SDS011;27636;52.610;13.244;2023-09-07T03:10:17;14.55;;;6.80;;
41943;SDS011;27636;52.610;13.244;2023-09-07T03:15:22;16.17;;;6.28;;
41943;SDS011;27636;52.610;13.244;2023-09-07T03:20:25;11.40;;;6.25;;
41943;SDS011;27636;52.610;13.244;2023-09-07T03:25:30;15.77;;;6.82;;
41943;SDS011;27636;52.610;13.244;2023-09-07T03:30:34;14.65;;;6.78;;
41943;SDS011;27636;52.610;13.244;2023-09-07T03:35:39;15.20;;;7.20;;
41943;SDS011;27636;52.610;13.244;2023-09-07T03:40:45;15.82;;;6.22;;
41943;SDS011;27636;52.610;13.244;2023-09-07T03:45:50;12.77;;;6.40;;
41943;SDS011;27636;52.610;13.244;2023-09-07T03:50:54;15.90;;;7.33;;
41943;SDS011;27636;52.610;13.244;2023-09-07T03:56:01;12.73;;;6.43;;
41943;SDS011;27636;52.610;13.244;2023-09-07T04:01:07;13.48;;;6.72;;
41943;SDS011;27636;52.610;13.244;2023-09-07T04:06:11;12.55;;;6.43;;
41943;SDS011;27636;52.610;13.244;2023-09-07T04:11:16;17.67;;;7.53;;
41943;SDS011;27636;52.610;13.244;2023-09-07T04:16:19;12.35;;;6.55;;
41943;SDS011;27636;52.610;13.244;2023-09-07T04:21:23;16.90;;;6.95;;
41943;SDS011;27636;52.610;13.244;2023-09-07T04:26:28;13.60;;;6.72;;
41943;SDS011;27636;52.610;13.244;2023-09-07T04:31:32;15.77;;;6.88;;
41943;SDS011;27636;52.610;13.244;2023-09-07T04:36:36;15.90;;;7.60;;
41943;SDS011;27636;52.610;13.244;2023-09-07T04:41:41;15.40;;;6.75;;
41943;SDS011;27636;52.610;13.244;2023-09-07T04:51:49;11.23;;;5.93;;
41943;SDS011;27636;52.610;13.244;2023-09-07T04:56:54;16.83;;;8.13;;
41943;SDS011;27636;52.610;13.244;2023-09-07T05:01:59;14.88;;;7.25;;
41943;SDS011;27636;52.610;13.244;2023-09-07T05:07:04;14.07;;;7.35;;
41943;SDS011;27636;52.610;13.244;2023-09-07T05:12:09;13.10;;;7.18;;
41943;SDS011;27636;52.610;13.244;2023-09-07T05:17:13;15.68;;;7.38;;
41943;SDS011;27636;52.610;13.244;2023-09-07T05:22:17;19.13;;;7.57;;
41943;SDS011;27636;52.610;13.244;2023-09-07T05:27:24;18.40;;;9.02;;
41943;SDS011;27636;52.610;13.244;2023-09-07T05:32:28;18.08;;;8.93;;
41943;SDS011;27636;52.610;13.244;2023-09-07T05:37:32;16.80;;;8.48;;
41943;SDS011;27636;52.610;13.244;2023-09-07T05:42:37;22.97;;;10.37;;
41943;SDS011;27636;52.610;13.244;2023-09-07T05:47:41;18.27;;;8.25;;
41943;SDS011;27636;52.610;13.244;2023-09-07T05:52:45;16.35;;;7.70;;
41943;SDS011;27636;52.610;13.244;2023-09-07T05:57:51;14.48;;;7.47;;
41943;SDS011;27636;52.610;13.244;2023-09-07T06:02:57;14.65;;;6.43;;
41943;SDS011;27636;52.610;13.244;2023-09-07T06:08:01;14.95;;;6.82;;
41943;SDS011;27636;52.610;13.244;2023-09-07T06:13:07;14.93;;;6.77;;
41943;SDS011;27636;52.610;13.244;2023-09-07T06:18:11;14.15;;;5.45;;
41943;SDS011;27636;52.610;13.244;2023-09-07T06:23:15;11.65;;;5.82;;
41943;SDS011;27636;52.610;13.244;2023-09-07T06:28:20;8.65;;;4.70;;
41943;SDS011;27636;52.610;13.244;2023-09-07T06:33:25;12.32;;;5.00;;
41943;SDS011;27636;52.610;13.244;2023-09-07T06:38:29;7.65;;;4.18;;
41943;SDS011;27636;52.610;13.244;2023-09-07T06:43:36;13.75;;;4.97;;
41943;SDS011;27636;52.610;13.244;2023-09-07T06:48:40;7.28;;;4.20;;
41943;SDS011;27636;52.610;13.244;2023-09-07T06:53:44;14.15;;;4.75;;
41943;SDS011;27636;52.610;13.244;2023-09-07T06:58:57;8.38;;;3.90;;
41943;SDS011;27636;52.610;13.244;2023-09-07T07:04:00;8.15;;;3.85;;
41943;SDS011;27636;52.610;13.244;2023-09-07T07:09:05;8.98;;;4.28;;
41943;SDS011;27636;52.610;13.244;2023-09-07T07:14:10;8.65;;;4.05;;
41943;SDS011;27636;52.610;13.244;2023-09-07T07:19:15;10.45;;;4.30;;
41943;SDS011;27636;52.610;13.244;2023-09-07T07:24:19;7.10;;;4.27;;
41943;SDS011;27636;52.610;13.244;2023-09-07T07:29:24;8.47;;;4.37;;
41943;SDS011;27636;52.610;13.244;2023-09-07T07:34:28;6.95;;;3.65;;
41943;SDS011;27636;52.610;13.244;2023-09-07T07:39:33;9.68;;;4.18;;
41943;SDS011;27636;52.610;13.244;2023-09-07T07:44:39;12.20;;;4.10;;
41943;SDS011;27636;52.610;13.244;2023-09-07T07:49:42;9.32;;;4.80;;
41943;SDS011;27636;52.610;13.244;2023-09-07T07:54:46;10.35;;;3.92;;
41943;SDS011;27636;52.610;13.244;2023-09-07T08:04:56;9.73;;;3.53;;
41943;SDS011;27636;52.610;13.244;2023-09-07T08:15:06;10.80;;;4.63;;
41943;SDS011;27636;52.610;13.244;2023-09-07T08:20:10;7.85;;;3.80;;
41943;SDS011;27636;52.610;13.244;2023-09-07T08:30:19;7.22;;;3.70;;
41943;SDS011;27636;52.610;13.244;2023-09-07T08:35:28;10.38;;;3.88;;
41943;SDS011;27636;52.610;13.244;2023-09-07T08:40:31;10.25;;;3.83;;
41943;SDS011;27636;52.610;13.244;2023-09-07T08:45:41;7.60;;;4.15;;
41943;SDS011;27636;52.610;13.244;2023-09-07T08:50:51;7.30;;;3.90;;
41943;SDS011;27636;52.610;13.244;2023-09-07T08:55:55;8.35;;;4.00;;
41943;SDS011;27636;52.610;13.244;2023-09-07T09:06:07;8.40;;;3.75;;
41943;SDS011;27636;52.610;13.244;2023-09-07T09:11:12;7.85;;;3.72;;
41943;SDS011;27636;52.610;13.244;2023-09-07T09:21:20;9.90;;;3.85;;
41943;SDS011;27636;52.610;13.244;2023-09-07T09:26:25;7.13;;;3.55;;
41943;SDS011;27636;52.610;13.244;2023-09-07T09:31:34;9.63;;;3.65;;
41943;SDS011;27636;52.610;13.244;2023-09-07T09:36:37;7.50;;;3.35;;
41943;SDS011;27636;52.610;13.244;2023-09-07T09:41:44;8.20;;;3.40;;
41943;SDS011;27636;52.610;13.244;2023-09-07T09:46:49;7.53;;;3.10;;
41943;SDS011;27636;52.610;13.244;2023-09-07T09:51:55;8.52;;;3.78;;
41943;SDS011;27636;52.610;13.244;2023-09-07T09:57:01;6.20;;;3.05;;
41943;SDS011;27636;52.610;13.244;2023-09-07T10:02:06;6.88;;;3.33;;
41943;SDS011;27636;52.610;13.244;2023-09-07T10:07:10;6.35;;;3.10;;
41943;SDS011;27636;52.610;13.244;2023-09-07T10:12:14;7.60;;;3.50;;
41943;SDS011;27636;52.610;13.244;2023-09-07T10:17:24;5.75;;;3.38;;
41943;SDS011;27636;52.610;13.244;2023-09-07T10:22:28;8.13;;;4.40;;
41943;SDS011;27636;52.610;13.244;2023-09-07T10:27:38;7.75;;;3.55;;
41943;SDS011;27636;52.610;13.244;2023-09-07T10:32:43;7.80;;;3.38;;
41943;SDS011;27636;52.610;13.244;2023-09-07T10:37:47;6.10;;;3.00;;
41943;SDS011;27636;52.610;13.244;2023-09-07T10:43:00;7.40;;;3.38;;
41943;SDS011;27636;52.610;13.244;2023-09-07T10:48:05;6.15;;;3.45;;
41943;SDS011;27636;52.610;13.244;2023-09-07T10:53:11;6.88;;;3.08;;
41943;SDS011;27636;52.610;13.244;2023-09-07T10:58:23;5.53;;;2.97;;
41943;SDS011;27636;52.610;13.244;2023-09-07T11:03:33;6.38;;;2.90;;
41943;SDS011;27636;52.610;13.244;2023-09-07T11:08:39;8.20;;;3.45;;
41943;SDS011;27636;52.610;13.244;2023-09-07T11:13:44;6.55;;;3.22;;
41943;SDS011;27636;52.610;13.244;2023-09-07T11:18:50;7.85;;;3.45;;
41943;SDS011;27636;52.610;13.244;2023-09-07T11:23:54;9.80;;;3.85;;
41943;SDS011;27636;52.610;13.244;2023-09-07T11:29:00;7.97;;;3.65;;
41943;SDS011;27636;52.610;13.244;2023-09-07T11:34:09;8.25;;;3.53;;
41943;SDS011;27636;52.610;13.244;2023-09-07T11:39:13;5.75;;;3.10;;
41943;SDS011;27636;52.610;13.244;2023-09-07T11:49:22;8.75;;;3.20;;
41943;SDS011;27636;52.610;13.244;2023-09-07T11:54:27;6.53;;;2.85;;
41943;SDS011;27636;52.610;13.244;2023-09-07T11:59:31;6.40;;;3.20;;
41943;SDS011;27636;52.610;13.244;2023-09-07T12:04:51;5.97;;;3.00;;
41943;SDS011;27636;52.610;13.244;2023-09-07T12:09:55;7.63;;;3.40;;
41943;SDS011;27636;52.610;13.244;2023-09-07T12:15:00;6.38;;;2.92;;
41943;SDS011;27636;52.610;13.244;2023-09-07T12:20:06;6.65;;;2.55;;
41943;SDS011;27636;52.610;13.244;2023-09-07T12:25:13;6.72;;;3.30;;
41943;SDS011;27636;52.610;13.244;2023-09-07T12:30:18;6.57;;;3.13;;
41943;SDS011;27636;52.610;13.244;2023-09-07T12:35:25;8.73;;;3.13;;
41943;SDS011;27636;52.610;13.244;2023-09-07T12:40:28;6.53;;;2.85;;
41943;SDS011;27636;52.610;13.244;2023-09-07T12:45:32;5.97;;;2.88;;
41943;SDS011;27636;52.610;13.244;2023-09-07T12:50:37;8.35;;;3.40;;
41943;SDS011;27636;52.610;13.244;2023-09-07T12:55:42;8.30;;;2.70;;
41943;SDS011;27636;52.610;13.244;2023-09-07T13:00:46;5.85;;;3.00;;
41943;SDS011;27636;52.610;13.244;2023-09-07T13:05:55;6.03;;;2.80;;
41943;SDS011;27636;52.610;13.244;2023-09-07T13:10:59;7.25;;;3.10;;
41943;SDS011;27636;52.610;13.244;2023-09-07T13:16:03;5.78;;;3.20;;
41943;SDS011;27636;52.610;13.244;2023-09-07T13:21:09;6.18;;;2.92;;
41943;SDS011;27636;52.610;13.244;2023-09-07T13:26:12;8.85;;;3.63;;
41943;SDS011;27636;52.610;13.244;2023-09-07T13:31:16;12.13;;;3.70;;
41943;SDS011;27636;52.610;13.244;2023-09-07T13:36:21;5.20;;;2.60;;
41943;SDS011;27636;52.610;13.244;2023-09-07T13:41:24;10.68;;;3.03;;
41943;SDS011;27636;52.610;13.244;2023-09-07T13:46:28;7.22;;;2.80;;
41943;SDS011;27636;52.610;13.244;2023-09-07T13:51:33;6.35;;;2.90;;
41943;SDS011;27636;52.610;13.244;2023-09-07T13:56:41;5.32;;;2.72;;
41943;SDS011;27636;52.610;13.244;2023-09-07T14:01:48;6.00;;;2.83;;
41943;SDS011;27636;52.610;13.244;2023-09-07T14:06:53;5.05;;;2.75;;
41943;SDS011;27636;52.610;13.244;2023-09-07T14:11:57;7.13;;;3.05;;
41943;SDS011;27636;52.610;13.244;2023-09-07T14:17:01;6.80;;;2.83;;
41943;SDS011;27636;52.610;13.244;2023-09-07T14:27:09;6.55;;;2.80;;
41943;SDS011;27636;52.610;13.244;2023-09-07T14:32:12;6.90;;;2.75;;
41943;SDS011;27636;52.610;13.244;2023-09-07T14:37:17;8.88;;;3.97;;
41943;SDS011;27636;52.610;13.244;2023-09-07T14:42:21;9.65;;;5.03;;
41943;SDS011;27636;52.610;13.244;2023-09-07T14:47:25;8.27;;;4.55;;
41943;SDS011;27636;52.610;13.244;2023-09-07T14:52:30;7.25;;;3.13;;
41943;SDS011;27636;52.610;13.244;2023-09-07T14:57:34;7.97;;;3.38;;
41943;SDS011;27636;52.610;13.244;2023-09-07T15:02:37;8.38;;;3.97;;
41943;SDS011;27636;52.610;13.244;2023-09-07T15:12:45;7.35;;;3.38;;
41943;SDS011;27636;52.610;13.244;2023-09-07T15:17:49;6.25;;;3.15;;
41943;SDS011;27636;52.610;13.244;2023-09-07T15:22:54;6.55;;;3.33;;
41943;SDS011;27636;52.610;13.244;2023-09-07T15:27:57;7.00;;;2.65;;
41943;SDS011;27636;52.610;13.244;2023-09-07T15:33:01;9.38;;;4.00;;
41943;SDS011;27636;52.610;13.244;2023-09-07T15:43:09;6.40;;;2.97;;
41943;SDS011;27636;52.610;13.244;2023-09-07T15:48:13;8.15;;;3.33;;
41943;SDS011;27636;52.610;13.244;2023-09-07T15:53:17;6.53;;;3.17;;
41943;SDS011;27636;52.610;13.244;2023-09-07T15:58:23;7.93;;;3.08;;
41943;SDS011;27636;52.610;13.244;2023-09-07T16:03:28;8.68;;;3.92;;
41943;SDS011;27636;52.610;13.244;2023-09-07T16:08:33;6.40;;;3.10;;
41943;SDS011;27636;52.610;13.244;2023-09-07T16:13:37;7.50;;;3.88;;
41943;SDS011;27636;52.610;13.244;2023-09-07T16:18:43;7.93;;;3.63;;
41943;SDS011;27636;52.610;13.244;2023-09-07T16:23:47;7.57;;;3.47;;
41943;SDS011;27636;52.610;13.244;2023-09-07T16:28:53;9.82;;;4.13;;
41943;SDS011;27636;52.610;13.244;2023-09-07T16:33:57;8.20;;;3.38;;
41943;SDS011;27636;52.610;13.244;2023-09-07T16:39:04;9.32;;;3.67;;
41943;SDS011;27636;52.610;13.244;2023-09-07T16:44:07;11.30;;;4.60;;
41943;SDS011;27636;52.610;13.244;2023-09-07T16:49:11;9.03;;;3.70;;
41943;SDS011;27636;52.610;13.244;2023-09-07T16:54:17;5.70;;;2.75;;
41943;SDS011;27636;52.610;13.244;2023-09-07T16:59:20;8.15;;;4.25;;
41943;SDS011;27636;52.610;13.244;2023-09-07T17:04:44;8.33;;;3.50;;
41943;SDS011;27636;52.610;13.244;2023-09-07T17:09:48;12.23;;;4.43;;
41943;SDS011;27636;52.610;13.244;2023-09-07T17:14:52;11.18;;;4.20;;
41943;SDS011;27636;52.610;13.244;2023-09-07T17:19:57;12.63;;;4.05;;
41943;SDS011;27636;52.610;13.244;2023-09-07T17:25:04;9.93;;;3.75;;
41943;SDS011;27636;52.610;13.244;2023-09-07T17:30:08;8.23;;;3.90;;
41943;SDS011;27636;52.610;13.244;2023-09-07T17:35:13;8.68;;;4.30;;
41943;SDS011;27636;52.610;13.244;2023-09-07T17:40:18;12.07;;;4.28;;
41943;SDS011;27636;52.610;13.244;2023-09-07T17:45:23;12.73;;;5.90;;
41943;SDS011;27636;52.610;13.244;2023-09-07T17:50:26;9.18;;;4.13;;
41943;SDS011;27636;52.610;13.244;2023-09-07T17:55:31;10.05;;;4.75;;
41943;SDS011;27636;52.610;13.244;2023-09-07T18:00:36;14.98;;;6.03;;
41943;SDS011;27636;52.610;13.244;2023-09-07T18:05:39;14.95;;;6.43;;
41943;SDS011;27636;52.610;13.244;2023-09-07T18:10:44;11.73;;;4.85;;
41943;SDS011;27636;52.610;13.244;2023-09-07T18:20:52;10.00;;;4.40;;
41943;SDS011;27636;52.610;13.244;2023-09-07T18:25:57;10.10;;;4.32;;
41943;SDS011;27636;52.610;13.244;2023-09-07T18:31:00;11.93;;;4.57;;
41943;SDS011;27636;52.610;13.244;2023-09-07T18:36:05;8.45;;;4.53;;
41943;SDS011;27636;52.610;13.244;2023-09-07T18:41:11;12.07;;;5.13;;
41943;SDS011;27636;52.610;13.244;2023-09-07T18:46:15;8.55;;;4.35;;
41943;SDS011;27636;52.610;13.244;2023-09-07T18:51:19;8.97;;;5.07;;
41943;SDS011;27636;52.610;13.244;2023-09-07T18:56:24;9.00;;;4.30;;
41943;SDS011;27636;52.610;13.244;2023-09-07T19:01:27;10.18;;;5.65;;
41943;SDS011;27636;52.610;13.244;2023-09-07T19:06:31;9.52;;;4.47;;
41943;SDS011;27636;52.610;13.244;2023-09-07T19:11:36;12.60;;;4.32;;
41943;SDS011;27636;52.610;13.244;2023-09-07T19:16:40;12.77;;;4.57;;
41943;SDS011;27636;52.610;13.244;2023-09-07T19:21:43;18.80;;;7.20;;
41943;SDS011;27636;52.610;13.244;2023-09-07T19:26:48;10.98;;;5.55;;
41943;SDS011;27636;52.610;13.244;2023-09-07T19:31:53;11.52;;;6.05;;
41943;SDS011;27636;52.610;13.244;2023-09-07T19:36:57;12.40;;;5.38;;
41943;SDS011;27636;52.610;13.244;2023-09-07T19:42:02;11.43;;;5.20;;
41943;SDS011;27636;52.610;13.244;2023-09-07T19:47:06;9.40;;;4.90;;
41943;SDS011;27636;52.610;13.244;2023-09-07T19:52:10;12.40;;;6.18;;
41943;SDS011;27636;52.610;13.244;2023-09-07T19:57:14;12.05;;;5.47;;
41943;SDS011;27636;52.610;13.244;2023-09-07T20:07:51;10.50;;;5.22;;
41943;SDS011;27636;52.610;13.244;2023-09-07T20:12:56;11.45;;;5.38;;
41943;SDS011;27636;52.610;13.244;2023-09-07T20:18:00;12.30;;;5.22;;
41943;SDS011;27636;52.610;13.244;2023-09-07T20:23:04;14.57;;;5.93;;
41943;SDS011;27636;52.610;13.244;2023-09-07T20:33:16;11.07;;;5.40;;
41943;SDS011;27636;52.610;13.244;2023-09-07T20:43:25;11.10;;;5.07;;
41943;SDS011;27636;52.610;13.244;2023-09-07T20:48:29;10.13;;;5.57;;
41943;SDS011;27636;52.610;13.244;2023-09-07T20:53:34;11.93;;;6.05;;
41943;SDS011;27636;52.610;13.244;2023-09-07T20:58:39;10.43;;;5.95;;
41943;SDS011;27636;52.610;13.244;2023-09-07T21:03:42;10.90;;;5.72;;
41943;SDS011;27636;52.610;13.244;2023-09-07T21:08:46;15.95;;;6.35;;
41943;SDS011;27636;52.610;13.244;2023-09-07T21:13:53;11.70;;;5.97;;
41943;SDS011;27636;52.610;13.244;2023-09-07T21:18:57;11.50;;;5.78;;
41943;SDS011;27636;52.610;13.244;2023-09-07T21:24:00;17.10;;;6.72;;
41943;SDS011;27636;52.610;13.244;2023-09-07T21:29:05;14.50;;;5.93;;
41943;SDS011;27636;52.610;13.244;2023-09-07T21:34:10;14.50;;;6.70;;
41943;SDS011;27636;52.610;13.244;2023-09-07T21:39:13;13.88;;;6.57;;
41943;SDS011;27636;52.610;13.244;2023-09-07T21:44:18;11.65;;;6.22;;
41943;SDS011;27636;52.610;13.244;2023-09-07T21:49:22;10.95;;;6.07;;
41943;SDS011;27636;52.610;13.244;2023-09-07T21:54:26;13.75;;;6.55;;
41943;SDS011;27636;52.610;13.244;2023-09-07T21:59:31;13.75;;;7.10;;
41943;SDS011;27636;52.610;13.244;2023-09-07T22:09:38;12.07;;;6.78;;
41943;SDS011;27636;52.610;13.244;2023-09-07T22:14:43;13.02;;;6.97;;
41943;SDS011;27636;52.610;13.244;2023-09-07T22:19:46;13.63;;;7.20;;
41943;SDS011;27636;52.610;13.244;2023-09-07T22:24:50;11.90;;;7.10;;
41943;SDS011;27636;52.610;13.244;2023-09-07T22:29:55;17.63;;;7.70;;
41943;SDS011;27636;52.610;13.244;2023-09-07T22:34:59;16.20;;;7.18;;
41943;SDS011;27636;52.610;13.244;2023-09-07T22:40:03;13.93;;;7.20;;
41943;SDS011;27636;52.610;13.244;2023-09-07T22:45:10;13.57;;;7.55;;
41943;SDS011;27636;52.610;13.244;2023-09-07T22:50:14;15.52;;;7.35;;
41943;SDS011;27636;52.610;13.244;2023-09-07T23:00:45;14.13;;;7.90;;
41943;SDS011;27636;52.610;13.244;2023-09-07T23:05:49;18.30;;;7.63;;
41943;SDS011;27636;52.610;13.244;2023-09-07T23:10:54;15.68;;;8.23;;
41943;SDS011;27636;52.610;13.244;2023-09-07T23:15:59;13.18;;;7.35;;
41943;SDS011;27636;52.610;13.244;2023-09-07T23:21:02;14.25;;;7.63;;
41943;SDS011;27636;52.610;13.244;2023-09-07T23:26:06;14.00;;;7.97;;
41943;SDS011;27636;52.610;13.244;2023-09-07T23:31:10;15.07;;;7.57;;
41943;SDS011;27636;52.610;13.244;2023-09-07T23:36:15;12.73;;;7.85;;
41943;SDS011;27636;52.610;13.244;2023-09-07T23:41:19;13.23;;;8.07;;
41943;SDS011;27636;52.610;13.244;2023-09-07T23:46:24;13.70;;;8.20;;
41943;SDS011;27636;52.610;13.244;2023-09-07T23:51:28;14.13;;;7.78;;
41943;SDS011;27636;52.610;13.244;2023-09-07T23:56:31;17.75;;;8.25;;
